Aérodrome :
LOGIN :

S'inscrire | Disclaimer

   EN    FR    IT 

 










Légende :    VFR   VFR Marginal   IFR   IFR Intensif   IFR Très Intensif
Visi : 
Plafond : 
>= 8 km
>= 3000ft
5 à 8 km
1000 à 3000 ft
1500m à 5 km
500 à 1000 ft
800 à 1500m
200 à 500 ft
< 800m
< 200 ft
Symboles :   Orages  Brouillard  Fortes neiges  Fortes précipitations  Vent > 20 kt
SIGMETs :   Divers  Orages  Givrage  Turbulence  Onde Orograph.  Cendres Volcan.







- Altitude de l'aérodrome : 84 ft
- Voir les cartes d'approche


LFBC - Cazaux

DERNIER METAR :
  • 172300Z AUTO 36005KT 9000 FEW042 13/13 Q1016

METARs EXPIRÉS :
  • 172230Z AUTO 35005KT CAVOK 13/13 Q1016
  • 172200Z AUTO 36003KT 9000 FEW041 13/13 Q1016
  • 172130Z AUTO 36004KT CAVOK 14/13 Q1016
  • 172100Z AUTO 02005KT 8000 NSC 15/14 Q1016
  • 172030Z AUTO 03008KT 9000 NSC 15/14 Q1015

TAF TAF LFBC
Valide du 17 à 15h jusqu'au 18 à 15h UTC


171400Z 1715/1815 06005KT 9999 SCT020 BKN040
BECMG 1721/1723 4000 BR
TEMPO 1800/1808 0800 BCFG
PROB40
TEMPO 1803/1809 BKN002
Pas de NOTAMs connus pour ce terrain.



MET'MAP, la Météo Aéronautique d'un coup d'oeil ! - Copyright ORBIFLY Décembre 2007 - Disclaimer

ORBIFLY MET'MAP TEAM :

Programmation & Développement : Alexandra Zaïnal
Conception & Développement : Baudouin d'Aumeries
Co-Programmation & Développement : Marc-Olivier Méhu
Soutien technique & logistique : Manuel Goepfert

Contact : metmap@orbifly.com




SOURCES & CREDITS :

   NOAA